• Join FlightAware (Why Join?)
  • Login
  • US Flag 
01:31AM EDT


 

Airport Tracker/Info


-or-


 

Live Flight TrackerFlight Track Log ✈ N32JL ✈ 03-Aug-2013 ✈ KSGJ - KCVC

Flight Track Log - Related Links

Times and Time Zones

All times are in EDT time to prevent confusion due to time zone crossing. See the N32JL flight status page for this flight to view local times or setup timezone preferences in your user account.

Time Position Orientation Groundspeed Altitude Reporting Facility
EDT Latitude Longitude Course Direction KTS MPH feet Rate Location/Type
01:48PM 30.9150 -82.0353 331° Northwest 107 123 8,500  Level Jacksonville Center
01:49PM 30.9381 -82.0522 328° Northwest 102 117 8,500  Level Jacksonville Center
01:50PM 30.9653 -82.0689 332° Northwest 102 117 8,500  Level Jacksonville Center
01:51PM 30.9906 -82.0856 331° Northwest 102 117 8,500  Level Jacksonville Center
01:52PM 31.0178 -82.1047 329° Northwest 102 117 8,500  Level Jacksonville Center
01:53PM 30.9206 -81.9740 331° Northwest  Level Estimated
01:53PM 31.0431 -82.1167 338° Northwest 102 117 8,500  Level Jacksonville Center
01:54PM 31.0661 -82.1358 325° Northwest 102 117 8,500  Level Jacksonville Center
01:55PM 31.0911 -82.1503 334° Northwest 102 117 8,500  Level Jacksonville Center
01:56PM 31.1164 -82.1669 331° Northwest 102 117 8,500  Level Jacksonville Center
01:57PM 31.1394 -82.1839 328° Northwest 102 117 8,500  Level Jacksonville Center
01:58PM 31.1667 -82.2006 332° Northwest 102 117 8,500  Level Jacksonville Center
01:59PM 31.1917 -82.2175 330° Northwest 102 117 8,500  Level Jacksonville Center
02:00PM 31.2169 -82.2342 331° Northwest 102 117 8,500  Level Jacksonville Center
02:01PM 31.2442 -82.2511 332° Northwest 102 117 8,500  Level Jacksonville Center
02:02PM 31.2692 -82.2678 330° Northwest 102 117 8,500  Level Jacksonville Center
02:03PM 31.2986 -82.2775 344° North 97 112 8,500  Level Jacksonville Center
02:04PM 31.3278 -82.2772 360° North 97 112 8,500  Level Jacksonville Center
02:05PM 31.3633 -82.2747 North 102 117 8,500  Level Jacksonville Center
02:06PM 31.3906 -82.2817 348° North 107 123 8,500  Level Jacksonville Center
02:07PM 31.4156 -82.2914 342° North 107 123 8,500  Level Jacksonville Center
02:08PM 31.4447 -82.3033 341° North 107 123 8,500  Level Jacksonville Center
02:09PM 31.4761 -82.3128 346° North 107 123 8,500  Level Jacksonville Center
02:10PM 31.5075 -82.3247 342° North 107 123 8,500  Level Jacksonville Center
02:11PM 31.5369 -82.3367 341° North 112 129 8,500  Level Jacksonville Center
02:12PM 31.5642 -82.3464 343° North 106 122 8,500  Level Jacksonville Center
02:13PM 31.5933 -82.3583 341° North 106 122 8,500  Level Jacksonville Center
02:14PM 31.6247 -82.3681 345° North 111 128 8,500  Level Jacksonville Center
02:15PM 31.6436 -82.3897 316° Northwest 105 121 8,500  Level Jacksonville Center
02:16PM 31.6519 -82.4217 287° West 100 115 8,500  Level Jacksonville Center
02:17PM 31.6606 -82.4508 289° West 100 115 8,500  Level Jacksonville Center
02:18PM 31.6753 -82.4800 301° West 100 115 8,500  Level Jacksonville Center
02:19PM 31.6878 -82.5069 299° West 95 109 8,500  Level Jacksonville Center
02:20PM 31.7025 -82.5361 301° West 95 109 8,500  Level Jacksonville Center
02:21PM 31.7214 -82.5628 310° West 95 109 8,500  Level Jacksonville Center
02:22PM 31.7444 -82.5822 324° Northwest 100 115 8,500  Level Jacksonville Center
02:23PM 31.7653 -82.5994 325° Northwest 107 123 8,500  Level Jacksonville Center
02:24PM 31.7967 -82.6114 342° North 107 123 8,500  Level Jacksonville Center
02:25PM 31.8217 -82.6333 323° Northwest 112 129 8,500  Level Jacksonville Center
02:26PM 31.8511 -82.6506 334° Northwest 112 129 8,500  Level Jacksonville Center
02:27PM 31.8761 -82.6650 334° Northwest 107 123 8,500  Level Jacksonville Center
02:28PM 31.9011 -82.6844 327° Northwest 102 117 8,500  Level Jacksonville Center
02:29PM 31.9283 -82.7017 332° Northwest 102 117 8,500  Level Jacksonville Center
02:30PM 31.9514 -82.7164 332° Northwest 96 110 8,500  Level Jacksonville Center
02:31PM 31.9806 -82.7333 334° Northwest 102 117 8,500  Level Jacksonville Center
02:32PM 32.0058 -82.7531 327° Northwest 102 117 8,500  Level Jacksonville Center
02:33PM 32.0308 -82.7725 327° Northwest 102 117 8,500  Level Jacksonville Center
02:34PM 32.0581 -82.7872 335° Northwest 102 117 8,600  Climbing Jacksonville Center
02:35PM 32.0850 -82.8067 329° Northwest 102 117 8,500 -60 Descending Jacksonville Center
02:36PM 32.1103 -82.8239 330° Northwest 102 117 8,500  Level Jacksonville Center
02:38PM 32.1667 -82.8667 327° Northwest 109 125 8,500  Level Atlanta TRACON
02:39PM 32.2000 -82.8833 337° Northwest 109 125 8,500  Level Atlanta TRACON
02:40PM 32.2167 -82.9000 320° Northwest 106 122 8,500  Level Atlanta TRACON
02:41PM 32.2500 -82.9167 337° Northwest 110 127 8,500  Level Atlanta TRACON
02:42PM 32.2667 -82.9333 320° Northwest 104 120 8,500  Level Atlanta TRACON
02:43PM 32.3000 -82.9500 337° Northwest 110 127 8,500  Level Atlanta TRACON
02:44PM 32.3167 -82.9667 320° Northwest 109 125 8,500  Level Atlanta TRACON
02:45PM 32.3500 -82.9833 337° Northwest 108 124 8,500  Level Atlanta TRACON
02:46PM 32.3833 -83.0000 337° Northwest 101 116 8,500  Level Atlanta TRACON
02:47PM 32.4000 -83.0167 320° Northwest 112 129 8,500 60 Level Atlanta TRACON
02:48PM 32.4333 -83.0333 337° Northwest 123 142 8,700  Climbing Atlanta TRACON
02:49PM 32.4500 -83.0500 320° Northwest 105 121 8,500 -120 Descending Atlanta TRACON
02:50PM 32.4833 -83.0667 337° Northwest 117 135 8,500  Level Atlanta TRACON
02:51PM 32.5167 -83.0833 337° Northwest 112 129 8,500  Level Atlanta TRACON
02:52PM 32.5333 -83.1000 320° Northwest 114 131 8,500  Level Atlanta TRACON
02:53PM 32.5667 -83.1167 337° Northwest 117 135 8,500  Level Atlanta TRACON
02:54PM 32.6000 -83.1333 337° Northwest 111 128 8,500  Level Atlanta TRACON
02:55PM 32.6167 -83.1500 320° Northwest 108 124 8,500  Level Atlanta TRACON
02:56PM 32.6500 -83.1667 337° Northwest 112 129 8,500  Level Atlanta TRACON
02:57PM 32.6833 -83.1833 337° Northwest 111 128 8,500  Level Atlanta TRACON
02:58PM 32.7000 -83.2000 320° Northwest 108 124 8,600  Climbing Atlanta TRACON
02:59PM 32.7333 -83.2167 337° Northwest 112 129 8,500 -120 Descending Atlanta TRACON
03:00PM 32.7667 -83.2167 360° North 111 128 8,400 -60 Descending Atlanta TRACON
03:01PM 32.8000 -83.2333 337° Northwest 111 128 8,400  Level Atlanta TRACON
03:02PM 32.8167 -83.2500 320° Northwest 111 128 8,400 -180 Level Atlanta TRACON
03:03PM 32.8500 -83.2667 337° Northwest 121 139 8,100 -420 Descending Atlanta TRACON
03:04PM 32.8833 -83.2833 337° Northwest 120 138 7,600 -480 Descending Atlanta TRACON
03:05PM 32.9167 -83.3000 337° Northwest 121 139 7,100 -780 Descending Atlanta TRACON
03:06PM 32.9500 -83.3167 337° Northwest 121 139 6,100 -900 Descending Atlanta TRACON
03:07PM 32.9667 -83.3333 320° Northwest 125 144 5,300 -720 Descending Atlanta TRACON
03:08PM 33.0000 -83.3500 337° Northwest 120 138 4,700 -480 Descending Atlanta TRACON
03:09PM 33.0333 -83.3667 337° Northwest 111 128 4,400 -180 Descending Atlanta TRACON
03:10PM 33.0667 -83.3833 337° Northwest 112 129 4,400  Level Atlanta TRACON
03:11PM 33.0833 -83.4000 320° Northwest 109 125 4,400  Level Atlanta TRACON
03:12PM 33.1167 -83.4167 337° Northwest 118 136 4,400  Level Atlanta TRACON
03:13PM 33.1333 -83.4333 320° Northwest 116 133 4,400  Level Atlanta TRACON
03:14PM 33.1667 -83.4500 337° Northwest 118 136 4,400  Level Atlanta TRACON
03:15PM 33.2000 -83.4667 337° Northwest 116 133 4,400  Level Atlanta TRACON
03:16PM 33.2333 -83.4833 337° Northwest 118 136 4,400 -180 Level Atlanta TRACON
03:17PM 33.2500 -83.5000 320° Northwest 125 144 4,100 -240 Descending Atlanta TRACON
03:18PM 33.2833 -83.5167 337° Northwest 119 137 4,000 -60 Descending Atlanta TRACON
03:19PM 33.3167 -83.5167 360° North 114 131 4,000  Level Atlanta TRACON
03:20PM 33.3500 -83.5333 337° Northwest 114 131 4,000  Level Atlanta TRACON
03:21PM 33.3667 -83.5500 320° Northwest 122 140 4,000  Level Atlanta TRACON
03:22PM 33.4000 -83.5667 337° Northwest 115 132 4,000  Level Atlanta TRACON
03:23PM 33.4333 -83.5833 337° Northwest 115 132 4,000 -240 Level Atlanta TRACON
03:24PM 33.4500 -83.6000 320° Northwest 116 133 3,600 -480 Descending Atlanta TRACON
03:26PM 33.4668 -83.6670 287° West  Level FlightAware Approximate
03:33PM 33.6167 -83.8333 320° Northwest  Level FlightAware Approximate
03:34PM 33.6323 -83.8475 320° Northwest  Level Estimated
03:35PM 33.6323 -83.8475 320° Northwest  Level Estimated
03:36PM 33.6323 -83.8475 320° Northwest  Level Estimated
03:37PM 33.6323 -83.8475 320° Northwest  Level Estimated
03:38PM 33.6323 -83.8475 320° Northwest  Level Estimated
03:39PM 33.6323 -83.8475 320° Northwest  Level Estimated
03:40PM 33.6323 -83.8475 320° Northwest  Level Estimated
03:41PM 33.6323 -83.8475 320° Northwest  Level Estimated
03:42PM 33.6323 -83.8475 320° Northwest  Level Estimated
03:43PM 33.6323 -83.8475 320° Northwest  Level Estimated
03:44PM 33.6323 -83.8475 320° Northwest  Level Estimated
03:45PM 33.6323 -83.8475 320° Northwest  Level Estimated
03:46PM 33.6323 -83.8475 320° Northwest  Level Estimated
03:47PM 33.6323 -83.8475 320° Northwest  Level Estimated
03:48PM 33.6323 -83.8475 320° Northwest  Level Estimated